Time;durP1;ratioP1;P1;durP2;ratioP2;P2;SDS_P1;SDS_P2;PMS_P1;PMS_P2;Temp;Humidity;BMP_temperature;BMP_pressure;BME280_temperature;BME280_humidity;BME280_pressure;Samples;Min_cycle;Max_cycle;Signal;HPM_P1;HPM_P2
2023/07/08 00:00:43;;;;;;;6.30;3.10;;;20.90;99.90;;;;;;5107622;28;20032;-53
2023/07/08 00:03:09;;;;;;;6.80;3.20;;;20.90;99.90;;;;;;5087123;28;20036;-52
2023/07/08 00:05:35;;;;;;;6.38;3.17;;;20.80;99.90;;;;;;5098407;28;20678;-53
2023/07/08 00:08:01;;;;;;;4.72;3.10;;;20.80;99.90;;;;;;5102883;28;20378;-52
2023/07/08 00:10:29;;;;;;;7.07;3.83;;;20.80;99.90;;;;;;5104648;28;20514;-52
2023/07/08 00:12:57;;;;;;;3.65;2.70;;;20.70;99.90;;;;;;5102715;28;20382;-52
2023/07/08 00:15:27;;;;;;;6.80;3.33;;;20.70;99.90;;;;;;5097143;28;20396;-52
2023/07/08 00:17:52;;;;;;;5.45;2.97;;;20.70;99.90;;;;;;5110438;28;20024;-53
2023/07/08 00:20:35;;;;;;;5.35;2.88;;;20.70;99.90;;;;;;5103021;28;20042;-53
2023/07/08 00:23:01;;;;;;;7.25;2.65;;;20.70;99.90;;;;;;5104120;28;20031;-52
2023/07/08 00:25:27;;;;;;;6.18;3.20;;;20.70;99.90;;;;;;5101990;28;20080;-52
2023/07/08 00:27:53;;;;;;;5.63;3.35;;;20.70;99.90;;;;;;5096146;28;20184;-52
2023/07/08 00:30:25;;;;;;;5.30;2.85;;;20.70;99.90;;;;;;5074101;28;20051;-53
2023/07/08 00:32:54;;;;;;;4.75;3.00;;;20.70;99.90;;;;;;5105517;28;20035;-52
2023/07/08 00:35:38;;;;;;;5.47;3.28;;;20.70;99.90;;;;;;5104254;28;20031;-53
2023/07/08 00:38:19;;;;;;;5.20;3.15;;;20.70;99.90;;;;;;5099340;28;20464;-53
2023/07/08 00:40:49;;;;;;;6.40;2.85;;;20.70;99.90;;;;;;5109078;28;20086;-53
2023/07/08 00:43:16;;;;;;;4.57;2.72;;;20.60;99.90;;;;;;5105532;28;20107;-52
2023/07/08 00:45:48;;;;;;;4.65;2.75;;;20.60;99.90;;;;;;5074956;28;20040;-52
2023/07/08 00:48:25;;;;;;;5.70;2.88;;;20.70;99.90;;;;;;5102562;28;20098;-53
2023/07/08 00:50:51;;;;;;;5.05;3.38;;;20.70;99.90;;;;;;5109218;28;20529;-55
2023/07/08 00:53:35;;;;;;;4.47;2.60;;;20.70;99.90;;;;;;5103134;28;20539;-52
2023/07/08 00:56:13;;;;;;;3.38;2.33;;;20.60;99.90;;;;;;5105923;28;20443;-53
2023/07/08 00:58:46;;;;;;;4.47;2.75;;;20.50;99.90;;;;;;5104203;28;20040;-52
2023/07/08 01:01:12;;;;;;;5.10;2.80;;;20.50;99.90;;;;;;5113067;28;20016;-53
2023/07/08 01:04:01;;;;;;;4.40;2.83;;;20.50;99.90;;;;;;5111576;28;20042;-52
2023/07/08 01:06:31;;;;;;;4.78;2.60;;;20.50;99.90;;;;;;5099146;28;20050;-53
2023/07/08 01:09:02;;;;;;;6.13;3.20;;;20.50;99.90;;;;;;5107362;28;20031;-53
2023/07/08 01:11:29;;;;;;;4.35;2.72;;;20.50;99.90;;;;;;5107937;28;20068;-53
2023/07/08 01:13:56;;;;;;;7.40;3.22;;;20.50;99.90;;;;;;5106457;28;20031;-54
2023/07/08 01:16:22;;;;;;;4.38;2.75;;;20.50;99.90;;;;;;5102416;28;20016;-54
2023/07/08 01:18:52;;;;;;;4.30;2.72;;;20.40;99.90;;;;;;5111276;28;20487;-53
2023/07/08 01:21:39;;;;;;;5.60;2.70;;;20.50;99.90;;;;;;5113146;28;20059;-54
2023/07/08 01:24:09;;;;;;;5.00;2.85;;;20.40;99.90;;;;;;5061400;28;20035;-53
2023/07/08 01:26:41;;;;;;;9.55;3.20;;;20.30;99.90;;;;;;5102240;28;20027;-55
2023/07/08 01:29:07;;;;;;;6.88;3.00;;;20.30;99.90;;;;;;5112312;28;20111;-52
2023/07/08 01:31:34;;;;;;;4.82;2.67;;;20.30;99.90;;;;;;5106910;28;20512;-53
2023/07/08 01:34:00;;;;;;;4.55;2.75;;;20.30;99.90;;;;;;5102928;28;20387;-53
2023/07/08 01:36:31;;;;;;;5.80;2.90;;;20.30;99.90;;;;;;5105145;28;20034;-54
2023/07/08 01:38:56;;;;;;;5.93;2.90;;;20.30;99.90;;;;;;5091604;28;20495;-53
2023/07/08 01:41:22;;;;;;;7.55;3.28;;;20.30;99.90;;;;;;5097355;28;20142;-53
2023/07/08 01:43:48;;;;;;;4.78;2.97;;;20.30;99.90;;;;;;5089596;28;20541;-53
2023/07/08 01:46:23;;;;;;;4.68;3.00;;;20.30;99.90;;;;;;5104869;28;20028;-52
2023/07/08 01:48:54;;;;;;;4.80;2.95;;;20.30;99.90;;;;;;5104498;28;20075;-53
2023/07/08 01:51:20;;;;;;;3.78;2.40;;;20.20;99.90;;;;;;5082597;28;20047;-53
2023/07/08 01:53:46;;;;;;;5.28;2.83;;;20.20;99.90;;;;;;5066437;28;20123;-53
2023/07/08 01:56:13;;;;;;;4.63;2.75;;;20.20;99.90;;;;;;5054880;28;20153;-53
2023/07/08 01:58:39;;;;;;;6.82;2.65;;;20.20;99.90;;;;;;5100629;28;20077;-53
2023/07/08 02:01:06;;;;;;;4.78;2.55;;;20.10;99.90;;;;;;5107419;28;20030;-53
2023/07/08 02:03:32;;;;;;;5.47;2.67;;;20.10;99.90;;;;;;5104363;28;20471;-54
2023/07/08 02:05:57;;;;;;;6.53;3.33;;;20.10;99.90;;;;;;5086946;28;20030;-53
2023/07/08 02:08:23;;;;;;;8.77;2.80;;;20.10;99.90;;;;;;5101999;28;20073;-53
2023/07/08 02:10:52;;;;;;;7.82;3.15;;;20.10;99.90;;;;;;5071423;28;20131;-52
2023/07/08 02:13:19;;;;;;;4.78;3.00;;;20.10;99.90;;;;;;5106075;28;20141;-53
2023/07/08 02:15:45;;;;;;;4.78;3.30;;;20.00;99.90;;;;;;5103679;28;20059;-52
2023/07/08 02:18:10;;;;;;;6.88;3.03;;;20.00;99.90;;;;;;5110431;28;20501;-52
2023/07/08 02:20:36;;;;;;;5.45;3.08;;;;;;;;;;5049287;28;20040;-53
2023/07/08 02:23:02;;;;;;;4.32;2.83;;;19.70;99.90;;;;;;5103903;28;20024;-53
2023/07/08 02:25:28;;;;;;;5.63;2.90;;;19.70;99.90;;;;;;5029925;28;20140;-52
2023/07/08 02:27:56;;;;;;;10.63;2.80;;;19.70;99.90;;;;;;5110547;28;20036;-53
2023/07/08 02:30:23;;;;;;;5.20;3.17;;;19.70;99.90;;;;;;5109804;28;20048;-52
2023/07/08 02:32:56;;;;;;;4.50;2.50;;;19.60;99.90;;;;;;5102970;28;20069;-53
2023/07/08 02:35:27;;;;;;;4.57;2.35;;;19.60;99.90;;;;;;5105912;28;20032;-53
2023/07/08 02:37:53;;;;;;;4.95;2.70;;;19.50;99.90;;;;;;5110480;28;20375;-52
2023/07/08 02:40:20;;;;;;;7.82;2.30;;;;;;;;;;5072132;28;20043;-53
2023/07/08 02:42:46;;;;;;;4.28;2.60;;;19.40;99.90;;;;;;5107132;28;20039;-53
2023/07/08 02:45:12;;;;;;;5.80;2.92;;;19.50;99.90;;;;;;5106047;28;20374;-53
2023/07/08 02:47:38;;;;;;;4.60;2.88;;;19.50;99.90;;;;;;5110090;28;20370;-54
2023/07/08 02:50:05;;;;;;;5.07;3.25;;;19.60;99.90;;;;;;5102633;28;20020;-53
2023/07/08 02:52:30;;;;;;;8.27;2.85;;;19.60;99.90;;;;;;5062899;28;20047;-53
2023/07/08 02:54:56;;;;;;;4.53;2.67;;;19.60;99.90;;;;;;5105773;28;20023;-52
2023/07/08 02:57:22;;;;;;;6.93;2.80;;;19.60;99.90;;;;;;5104544;28;20459;-53
2023/07/08 02:59:47;;;;;;;5.32;2.95;;;19.60;99.90;;;;;;5110191;28;20027;-53
2023/07/08 03:02:13;;;;;;;3.75;2.40;;;19.70;99.90;;;;;;5109257;28;20110;-53
2023/07/08 03:04:39;;;;;;;6.15;3.17;;;19.60;99.90;;;;;;5107071;28;20032;-52
2023/07/08 03:07:11;;;;;;;3.83;2.47;;;19.60;99.90;;;;;;5100022;28;20040;-54
2023/07/08 03:09:37;;;;;;;5.38;2.60;;;19.60;99.90;;;;;;5105981;28;20059;-53
2023/07/08 03:12:03;;;;;;;4.70;2.75;;;19.60;99.90;;;;;;5102529;28;20708;-52
2023/07/08 03:14:29;;;;;;;5.70;2.80;;;19.70;99.90;;;;;;5064200;28;20115;-53
2023/07/08 03:16:54;;;;;;;4.57;2.60;;;19.70;99.90;;;;;;5104916;28;20024;-53
2023/07/08 03:19:20;;;;;;;5.47;2.35;;;19.70;99.90;;;;;;5104172;28;20433;-52
2023/07/08 03:21:46;;;;;;;5.65;2.42;;;19.50;99.90;;;;;;5105711;28;20477;-53
2023/07/08 03:24:12;;;;;;;6.57;3.00;;;19.40;99.90;;;;;;5067145;28;20067;-53
2023/07/08 03:26:38;;;;;;;6.18;2.92;;;19.40;99.90;;;;;;5097369;28;20038;-54
2023/07/08 03:29:05;;;;;;;6.53;3.03;;;19.40;99.90;;;;;;5106427;28;20113;-53
2023/07/08 03:31:31;;;;;;;4.63;2.65;;;19.40;99.90;;;;;;5103747;28;20047;-53
2023/07/08 03:33:56;;;;;;;5.45;2.83;;;19.60;99.90;;;;;;5106059;28;20027;-53
2023/07/08 03:36:22;;;;;;;5.43;2.60;;;19.50;99.90;;;;;;5106727;28;20036;-53
2023/07/08 03:38:52;;;;;;;4.57;2.72;;;19.60;99.90;;;;;;5107193;28;20020;-53
2023/07/08 03:41:19;;;;;;;8.02;3.75;;;19.60;99.90;;;;;;5071144;28;20059;-53
2023/07/08 03:43:45;;;;;;;5.28;3.08;;;19.60;99.90;;;;;;5069228;28;20036;-53
2023/07/08 03:46:12;;;;;;;4.50;2.65;;;19.60;99.90;;;;;;5110511;28;20035;-53
2023/07/08 03:48:39;;;;;;;4.30;2.47;;;19.70;99.90;;;;;;5099644;28;20032;-53
2023/07/08 03:51:13;;;;;;;5.43;3.22;;;19.70;99.90;;;;;;5099474;28;20047;-53
2023/07/08 03:53:39;;;;;;;5.97;2.92;;;19.70;99.90;;;;;;5099659;28;20375;-53
2023/07/08 03:56:05;;;;;;;7.03;3.17;;;19.80;99.90;;;;;;5110966;28;20030;-53
2023/07/08 03:58:30;;;;;;;4.30;2.90;;;19.90;99.90;;;;;;5101492;28;20120;-52
2023/07/08 04:00:56;;;;;;;7.20;3.60;;;19.90;99.90;;;;;;5107643;28;20103;-53
2023/07/08 04:03:22;;;;;;;7.68;3.30;;;19.90;99.90;;;;;;5102602;28;20030;-53
2023/07/08 04:05:47;;;;;;;4.60;3.03;;;19.90;99.90;;;;;;5105116;28;20024;-53
2023/07/08 04:08:13;;;;;;;5.15;3.15;;;19.90;99.90;;;;;;5068795;28;20051;-53
2023/07/08 04:10:39;;;;;;;6.20;3.63;;;19.80;99.90;;;;;;5106850;28;20035;-54
2023/07/08 04:13:04;;;;;;;8.20;3.45;;;19.70;99.90;;;;;;5101588;28;20077;-53
2023/07/08 04:15:30;;;;;;;5.40;3.70;;;19.60;99.90;;;;;;5108250;28;20115;-53
2023/07/08 04:17:57;;;;;;;5.38;2.92;;;19.60;99.90;;;;;;5111060;28;20064;-53
2023/07/08 04:20:23;;;;;;;6.28;3.78;;;19.70;99.90;;;;;;5109563;28;20486;-55
2023/07/08 04:22:48;;;;;;;6.10;3.63;;;19.70;99.90;;;;;;5105409;28;20024;-53
2023/07/08 04:25:14;;;;;;;7.38;4.30;;;19.80;99.90;;;;;;5086618;28;20036;-52
2023/07/08 04:27:41;;;;;;;7.15;3.45;;;19.90;99.90;;;;;;5021858;28;20036;-53
2023/07/08 04:30:07;;;;;;;8.82;3.42;;;19.90;99.90;;;;;;5112615;28;20465;-54
2023/07/08 04:32:33;;;;;;;7.20;3.83;;;19.90;99.90;;;;;;5055684;28;20124;-52
2023/07/08 04:34:59;;;;;;;9.20;3.55;;;19.90;99.90;;;;;;5113962;28;20165;-52
2023/07/08 04:37:25;;;;;;;6.47;3.45;;;19.90;99.90;;;;;;5107485;28;20038;-55
2023/07/08 04:39:51;;;;;;;8.35;3.10;;;20.00;99.90;;;;;;5088727;28;20040;-52
2023/07/08 04:42:17;;;;;;;6.97;4.05;;;20.10;99.90;;;;;;5109130;28;20062;-52
2023/07/08 04:44:44;;;;;;;8.43;3.42;;;20.10;99.90;;;;;;5101858;28;20051;-53
2023/07/08 04:47:12;;;;;;;10.23;4.15;;;20.20;99.90;;;;;;5103829;28;20389;-53
2023/07/08 04:49:37;;;;;;;7.45;3.78;;;20.30;99.90;;;;;;5074004;28;20040;-53
2023/07/08 04:52:04;;;;;;;6.35;2.90;;;20.20;99.90;;;;;;5098643;28;20043;-53
2023/07/08 04:54:29;;;;;;;6.10;3.60;;;20.30;99.90;;;;;;5054301;28;20036;-53
2023/07/08 04:56:55;;;;;;;4.70;3.30;;;20.40;99.90;;;;;;5054642;28;20123;-53
2023/07/08 04:59:24;;;;;;;8.98;4.20;;;20.40;99.90;;;;;;5107816;28;20073;-53
2023/07/08 05:01:52;;;;;;;9.80;3.60;;;20.60;99.90;;;;;;5106303;28;20058;-52
2023/07/08 05:04:20;;;;;;;6.72;3.78;;;20.50;99.90;;;;;;5106619;28;20036;-53
2023/07/08 05:06:46;;;;;;;9.30;3.53;;;20.60;99.90;;;;;;5101540;28;20031;-53
2023/07/08 05:09:12;;;;;;;6.45;3.53;;;20.70;99.90;;;;;;5111518;28;20074;-53
2023/07/08 05:11:38;;;;;;;6.30;3.63;;;20.80;99.90;;;;;;5104024;28;20040;-53
2023/07/08 05:14:05;;;;;;;7.55;3.53;;;21.00;99.90;;;;;;5099534;28;20113;-53
2023/07/08 05:16:34;;;;;;;7.38;3.47;;;21.00;99.90;;;;;;5109930;28;20364;-52
2023/07/08 05:19:00;;;;;;;7.20;3.88;;;21.10;99.90;;;;;;5105144;28;20374;-53
2023/07/08 05:21:27;;;;;;;6.85;4.00;;;21.30;99.90;;;;;;5102637;28;20032;-53
2023/07/08 05:23:53;;;;;;;6.45;3.33;;;21.40;99.90;;;;;;5105753;28;20038;-52
2023/07/08 05:26:19;;;;;;;7.60;3.67;;;21.30;99.90;;;;;;5056189;28;20078;-52
2023/07/08 05:28:45;;;;;;;4.85;3.25;;;21.40;99.90;;;;;;5069337;28;20056;-53
2023/07/08 05:31:11;;;;;;;7.10;3.63;;;21.40;99.90;;;;;;5099517;28;20368;-52
2023/07/08 05:33:37;;;;;;;11.25;3.47;;;21.40;99.90;;;;;;5111182;28;20072;-54
2023/07/08 05:36:03;;;;;;;9.38;4.03;;;21.30;99.90;;;;;;5097980;28;20073;-53
2023/07/08 05:38:29;;;;;;;6.72;3.50;;;21.50;99.90;;;;;;5097361;28;20489;-53
2023/07/08 05:40:57;;;;;;;10.27;4.18;;;21.50;99.90;;;;;;5102048;28;20047;-53
2023/07/08 05:43:23;;;;;;;7.75;4.30;;;21.70;99.90;;;;;;5099356;28;20468;-52
2023/07/08 05:45:49;;;;;;;6.45;3.65;;;21.60;99.90;;;;;;5070816;28;20051;-53
2023/07/08 05:48:15;;;;;;;5.82;3.78;;;21.60;99.90;;;;;;5070298;28;20032;-53
2023/07/08 05:50:41;;;;;;;6.03;3.97;;;21.60;99.90;;;;;;5105851;28;20031;-52
2023/07/08 05:53:11;;;;;;;7.57;3.58;;;21.50;99.90;;;;;;5103926;28;20114;-53
2023/07/08 05:55:37;;;;;;;8.05;3.95;;;21.70;99.90;;;;;;5101957;28;20035;-51
2023/07/08 05:58:03;;;;;;;9.82;4.43;;;21.80;99.90;;;;;;5105846;28;20435;-52
2023/07/08 06:00:29;;;;;;;9.07;3.92;;;21.70;99.90;;;;;;5109983;28;20119;-51
2023/07/08 06:02:54;;;;;;;7.30;3.30;;;21.90;99.90;;;;;;5075899;28;20042;-51
2023/07/08 06:05:20;;;;;;;8.82;3.90;;;22.10;99.90;;;;;;5103342;28;20031;-51
2023/07/08 06:07:46;;;;;;;5.50;3.60;;;22.30;99.90;;;;;;5103112;28;20032;-51
2023/07/08 06:10:12;;;;;;;7.95;4.00;;;22.40;99.90;;;;;;5102333;28;20028;-51
2023/07/08 06:12:37;;;;;;;7.90;5.32;;;22.40;99.90;;;;;;5103981;28;20027;-51
2023/07/08 06:15:04;;;;;;;7.18;3.63;;;22.40;99.90;;;;;;5066522;28;20040;-51
2023/07/08 06:17:30;;;;;;;7.60;4.20;;;22.30;99.90;;;;;;5104351;28;20040;-52
2023/07/08 06:19:55;;;;;;;6.63;3.42;;;22.50;99.90;;;;;;5070712;28;20043;-52
2023/07/08 06:22:21;;;;;;;8.52;3.38;;;;;;;;;;5022800;28;20073;-53
2023/07/08 06:24:47;;;;;;;6.47;3.67;;;;;;;;;;5086153;28;20119;-51
2023/07/08 06:27:14;;;;;;;7.05;3.40;;;;;;;;;;5096829;28;20028;-52
2023/07/08 06:29:40;;;;;;;6.63;3.50;;;;;;;;;;5107523;28;20032;-52
2023/07/08 06:32:07;;;;;;;5.38;2.90;;;;;;;;;;5108075;28;20039;-51
2023/07/08 06:34:33;;;;;;;20.05;6.85;;;;;;;;;;5099357;28;20028;-52
2023/07/08 06:36:59;;;;;;;5.78;2.90;;;;;;;;;;5067553;28;20035;-50
2023/07/08 06:39:25;;;;;;;5.13;2.70;;;;;;;;;;5088303;28;20058;-51
2023/07/08 06:41:51;;;;;;;8.45;3.83;;;;;;;;;;5062963;28;20672;-51
2023/07/08 06:44:17;;;;;;;8.45;3.17;;;;;;;;;;5101674;28;20506;-52
2023/07/08 06:46:43;;;;;;;10.00;3.25;;;;;;;;;;5102820;28;20035;-52
2023/07/08 06:49:09;;;;;;;6.72;3.28;;;23.70;99.90;;;;;;5063574;28;20024;-52
2023/07/08 06:51:36;;;;;;;6.80;3.35;;;23.80;99.90;;;;;;5104547;28;20046;-51
2023/07/08 06:54:10;;;;;;;3.33;2.40;;;23.80;99.90;;;;;;5100472;28;20526;-52
2023/07/08 06:56:40;;;;;;;5.03;2.90;;;23.60;99.90;;;;;;5101021;28;20039;-52
2023/07/08 06:59:07;;;;;;;5.72;3.20;;;23.80;99.90;;;;;;5100484;28;20501;-52
2023/07/08 07:01:33;;;;;;;4.15;2.50;;;24.00;99.90;;;;;;5107795;27;20423;-52
2023/07/08 07:04:00;;;;;;;6.35;3.40;;;23.90;99.90;;;;;;5102202;28;20093;-52
2023/07/08 07:06:26;;;;;;;4.43;3.33;;;24.00;99.90;;;;;;5103470;28;20032;-52
2023/07/08 07:08:51;;;;;;;5.65;2.80;;;24.20;99.90;;;;;;5099438;28;20487;-52
2023/07/08 07:11:19;;;;;;;6.68;3.00;;;24.10;99.90;;;;;;5107196;28;20036;-52
2023/07/08 07:13:45;;;;;;;5.07;2.97;;;24.20;99.90;;;;;;5109477;28;20028;-52
2023/07/08 07:16:11;;;;;;;6.45;2.63;;;24.40;99.90;;;;;;5070567;28;20043;-51
2023/07/08 07:18:36;;;;;;;5.15;2.67;;;24.50;99.90;;;;;;5107424;28;20106;-50
2023/07/08 07:21:02;;;;;;;4.35;2.40;;;24.50;99.90;;;;;;5103143;28;20035;-51
2023/07/08 07:23:28;;;;;;;4.70;2.38;;;24.60;99.90;;;;;;5047565;28;20036;-51
2023/07/08 07:25:54;;;;;;;3.97;2.45;;;24.70;99.90;;;;;;5103030;28;20459;-52
2023/07/08 07:28:19;;;;;;;5.95;2.88;;;24.80;99.90;;;;;;5111921;28;20027;-52
2023/07/08 07:30:46;;;;;;;11.05;2.53;;;;;;;;;;5052950;28;20185;-52
2023/07/08 07:33:12;;;;;;;5.05;2.40;;;;;;;;;;5098755;28;20024;-52
2023/07/08 07:35:45;;;;;;;4.32;2.83;;;25.10;99.90;;;;;;5101190;28;20572;-52
2023/07/08 07:38:11;;;;;;;3.25;2.25;;;25.30;99.90;;;;;;5105762;28;20308;-51
2023/07/08 07:40:37;;;;;;;5.55;2.65;;;;;;;;;;5100738;28;20311;-51
2023/07/08 07:43:03;;;;;;;5.03;2.60;;;;;;;;;;5110613;28;20030;-52
2023/07/08 07:45:29;;;;;;;4.57;2.80;;;;;;;;;;5068947;28;20402;-50
2023/07/08 07:47:55;;;;;;;2.90;1.90;;;;;;;;;;5103400;28;20032;-51
2023/07/08 07:50:21;;;;;;;8.05;2.50;;;26.00;99.90;;;;;;5051492;28;20171;-52
2023/07/08 07:52:46;;;;;;;4.35;2.72;;;25.80;99.90;;;;;;5109504;28;20036;-51
2023/07/08 07:55:12;;;;;;;4.03;2.30;;;26.00;99.90;;;;;;5105778;28;20031;-52
2023/07/08 07:57:38;;;;;;;4.45;2.42;;;25.80;99.90;;;;;;5127510;27;20086;-52
2023/07/08 08:00:05;;;;;;;3.90;2.67;;;26.00;99.90;;;;;;5104040;28;20019;-51
2023/07/08 08:02:30;;;;;;;4.70;2.70;;;25.90;99.90;;;;;;5111928;28;20032;-52
2023/07/08 08:04:56;;;;;;;5.65;2.40;;;26.00;99.90;;;;;;5074225;28;20398;-52
2023/07/08 08:07:22;;;;;;;7.80;2.50;;;25.80;99.90;;;;;;5106072;28;20046;-51
2023/07/08 08:09:48;;;;;;;3.85;2.38;;;26.00;99.90;;;;;;5108460;28;20027;-52
2023/07/08 08:12:14;;;;;;;4.70;2.90;;;;;;;;;;5105808;28;20071;-51
2023/07/08 08:14:40;;;;;;;4.57;2.47;;;;;;;;;;5105995;28;20031;-51
2023/07/08 08:17:06;;;;;;;3.78;2.50;;;26.70;99.90;;;;;;5101686;28;20032;-51
2023/07/08 08:19:32;;;;;;;4.05;2.05;;;26.70;99.90;;;;;;5063025;28;20039;-52
2023/07/08 08:21:58;;;;;;;3.72;2.78;;;26.90;99.90;;;;;;5107629;28;20390;-53
2023/07/08 08:24:23;;;;;;;3.38;2.83;;;26.90;99.90;;;;;;5102874;28;20030;-52
2023/07/08 08:26:49;;;;;;;3.88;2.20;;;26.80;99.90;;;;;;5104065;28;20039;-51
2023/07/08 08:29:15;;;;;;;3.63;2.05;;;26.90;99.90;;;;;;5110696;28;20106;-51
2023/07/08 08:31:41;;;;;;;4.82;2.45;;;;;;;;;;5106157;28;20036;-51
2023/07/08 08:34:07;;;;;;;3.45;1.95;;;;;;;;;;5105257;28;20024;-51
2023/07/08 08:36:33;;;;;;;2.65;1.77;;;;;;;;;;5106215;28;20028;-51
2023/07/08 08:38:59;;;;;;;2.83;1.77;;;;;;;;;;5111461;28;20043;-52
2023/07/08 08:41:32;;;;;;;5.25;3.15;;;;;;;;;;5103036;28;20436;-50
2023/07/08 08:43:59;;;;;;;4.38;2.25;;;;;;;;;;5106217;28;20032;-50
2023/07/08 08:46:32;;;;;;;4.38;2.30;;;;;;;;;;5107391;28;20072;-52
2023/07/08 08:49:10;;;;;;;3.88;1.60;;;28.10;99.90;;;;;;5109541;28;20054;-51
2023/07/08 08:51:36;;;;;;;2.70;1.92;;;28.00;99.90;;;;;;5085628;28;20071;-52
2023/07/08 08:54:02;;;;;;;2.42;1.60;;;27.90;99.90;;;;;;5044894;28;20059;-51
2023/07/08 08:56:39;;;;;;;3.25;2.00;;;28.00;99.90;;;;;;5075660;28;20093;-52
2023/07/08 08:59:23;;;;;;;5.35;2.10;;;28.20;99.90;;;;;;5110014;28;20077;-51
2023/07/08 09:01:50;;;;;;;5.32;2.97;;;28.00;99.90;;;;;;5103901;28;20031;-51
2023/07/08 09:04:36;;;;;;;6.45;2.15;;;28.00;99.90;;;;;;5105702;28;20084;-52
2023/07/08 09:07:16;;;;;;;7.03;2.28;;;28.10;99.90;;;;;;5109931;28;20028;-51
2023/07/08 09:09:48;;;;;;;3.72;2.63;;;;;;;;;;5100611;28;20032;-51
2023/07/08 09:12:18;;;;;;;4.60;2.83;;;28.40;99.90;;;;;;5106274;28;20040;-51
2023/07/08 09:14:44;;;;;;;6.28;1.98;;;;;;;;;;5112068;28;20027;-50
2023/07/08 09:17:23;;;;;;;4.60;2.10;;;;;;;;;;5094366;28;20035;-51
2023/07/08 09:20:09;;;;;;;3.67;2.00;;;;;;;;;;5102489;28;20020;-51
2023/07/08 09:22:35;;;;;;;3.63;2.38;;;;;;;;;;5083094;28;20032;-52
2023/07/08 09:25:25;;;;;;;2.60;2.00;;;28.90;99.90;;;;;;5106415;28;20031;-51
2023/07/08 09:27:50;;;;;;;3.22;1.92;;;29.00;98.20;;;;;;5052306;28;21035;-50
2023/07/08 09:30:20;;;;;;;5.20;2.03;;;29.20;98.00;;;;;;5049647;28;20036;-51
2023/07/08 09:32:47;;;;;;;2.85;1.90;;;29.30;97.70;;;;;;5039805;28;20045;-52
2023/07/08 09:35:28;;;;;;;3.00;2.03;;;29.30;98.90;;;;;;5026708;28;20524;-53
2023/07/08 09:37:55;;;;;;;2.47;1.90;;;29.30;97.60;;;;;;5045284;28;20080;-52
2023/07/08 09:40:28;;;;;;;2.97;2.20;;;29.60;98.20;;;;;;5036682;28;20515;-51
2023/07/08 09:43:03;;;;;;;4.35;2.30;;;29.50;99.30;;;;;;5047134;28;20072;-53
2023/07/08 09:45:41;;;;;;;3.35;1.90;;;29.50;97.10;;;;;;5043056;28;20463;-51
2023/07/08 09:48:25;;;;;;;3.03;1.77;;;29.50;96.40;;;;;;5042613;28;20042;-51
2023/07/08 09:50:53;;;;;;;4.68;2.80;;;29.30;95.80;;;;;;5022504;28;20508;-52
2023/07/08 09:53:19;;;;;;;3.70;1.90;;;29.30;96.50;;;;;;5043085;28;20152;-51
2023/07/08 09:55:46;;;;;;;3.72;2.20;;;29.40;95.60;;;;;;5034745;28;20044;-51
2023/07/08 09:58:18;;;;;;;2.80;1.67;;;29.50;96.60;;;;;;5055562;28;20104;-53
2023/07/08 10:00:49;;;;;;;3.22;1.98;;;;;;;;;;5056617;28;20051;-52
2023/07/08 10:03:23;;;;;;;6.00;1.95;;;;;;;;;;5060189;28;20119;-51
2023/07/08 10:05:52;;;;;;;3.28;2.03;;;;;;;;;;5056963;28;20467;-52
2023/07/08 10:08:19;;;;;;;5.43;2.03;;;;;;;;;;5058583;28;20049;-53
2023/07/08 10:10:47;;;;;;;3.45;1.90;;;;;;;;;;5037431;28;20055;-54
2023/07/08 10:13:32;;;;;;;4.82;2.40;;;;;;;;;;5057539;28;20040;-52
2023/07/08 10:16:10;;;;;;;5.07;2.40;;;;;;;;;;5058499;28;20052;-50
2023/07/08 10:18:36;;;;;;;3.80;2.13;;;;;;;;;;5064748;28;20039;-50
2023/07/08 10:21:39;;;;;;;3.28;2.10;;;30.40;94.30;;;;;;4975454;28;20048;-51
2023/07/08 10:24:20;;;;;;;9.43;2.45;;;;;;;;;;5063373;28;20055;-52
2023/07/08 10:27:00;;;;;;;4.55;2.08;;;;;;;;;;5022417;28;20803;-52
2023/07/08 10:29:26;;;;;;;2.97;1.95;;;;;;;;;;5056077;28;20049;-54
2023/07/08 10:31:57;;;;;;;4.72;2.33;;;;;;;;;;5065373;28;20052;-52
2023/07/08 10:34:27;;;;;;;4.22;2.15;;;31.00;98.50;;;;;;5081375;28;20082;-51
2023/07/08 10:37:09;;;;;;;3.47;2.03;;;30.30;94.90;;;;;;5067663;28;20038;-51
2023/07/08 10:39:55;;;;;;;2.97;2.10;;;30.60;95.60;;;;;;5103526;28;20489;-55
2023/07/08 10:42:38;;;;;;;4.18;2.00;;;30.40;95.20;;;;;;5100829;28;20040;-50
2023/07/08 10:45:18;;;;;;;3.33;2.03;;;30.50;95.10;;;;;;5100897;28;20024;-51
2023/07/08 10:48:03;;;;;;;6.78;2.47;;;30.60;95.00;;;;;;5102658;28;20020;-52
2023/07/08 10:50:42;;;;;;;6.38;2.83;;;30.50;95.40;;;;;;5096958;28;20036;-51
2023/07/08 10:53:11;;;;;;;3.72;2.40;;;;;;;;;;5103570;28;20028;-53
2023/07/08 10:55:39;;;;;;;3.50;2.03;;;31.00;99.90;;;;;;5103162;28;20379;-52
2023/07/08 10:58:36;;;;;;;4.20;2.55;;;31.20;97.00;;;;;;5067801;28;20032;-52
2023/07/08 11:01:14;;;;;;;3.67;2.40;;;;;;;;;;5100549;28;20023;-51
2023/07/08 11:04:21;;;;;;;3.88;2.20;;;32.00;94.70;;;;;;5103032;28;20387;-51
2023/07/08 11:06:55;;;;;;;3.50;2.30;;;31.70;94.50;;;;;;5048995;28;20468;-52
2023/07/08 11:09:44;;;;;;;3.92;2.15;;;30.80;94.30;;;;;;5008981;28;20049;-51
2023/07/08 11:12:09;;;;;;;5.32;2.83;;;29.90;94.60;;;;;;5049370;28;20135;-50
2023/07/08 11:14:47;;;;;;;4.53;2.55;;;29.80;95.00;;;;;;5049342;28;20599;-52
2023/07/08 11:17:18;;;;;;;3.45;2.40;;;30.20;95.50;;;;;;5048609;28;20029;-54
2023/07/08 11:19:52;;;;;;;3.63;2.45;;;30.70;95.00;;;;;;5049395;28;20086;-51
2023/07/08 11:22:21;;;;;;;3.40;2.35;;;30.70;95.30;;;;;;5049869;28;20032;-51
2023/07/08 11:24:50;;;;;;;3.97;2.42;;;31.20;94.50;;;;;;5017272;28;20041;-52
2023/07/08 11:27:26;;;;;;;5.28;2.67;;;31.60;94.30;;;;;;5049933;28;20037;-51
2023/07/08 11:29:56;;;;;;;3.67;2.05;;;31.60;94.10;;;;;;5051308;28;20388;-53
2023/07/08 11:32:26;;;;;;;4.70;2.15;;;30.80;92.60;;;;;;5047056;28;20077;-50
2023/07/08 11:34:53;;;;;;;3.28;1.83;;;31.10;93.50;;;;;;5054387;28;20024;-50
2023/07/08 11:37:21;;;;;;;5.00;2.90;;;31.00;92.80;;;;;;5085400;28;20387;-52
2023/07/08 11:40:17;;;;;;;3.70;2.70;;;31.60;94.00;;;;;;5099932;28;20165;-52
2023/07/08 11:42:49;;;;;;;4.10;2.00;;;31.60;93.90;;;;;;5082855;28;20059;-52
2023/07/08 11:45:18;;;;;;;4.35;2.58;;;32.00;93.90;;;;;;5099168;28;20122;-54
2023/07/08 11:47:48;;;;;;;4.18;2.22;;;32.70;98.40;;;;;;5101431;28;20035;-53
2023/07/08 11:50:28;;;;;;;4.50;2.35;;;33.10;93.20;;;;;;5108479;28;20054;-53
2023/07/08 11:52:58;;;;;;;11.40;4.57;;;33.20;94.20;;;;;;5095744;28;20047;-54
2023/07/08 11:55:28;;;;;;;10.00;3.70;;;32.70;93.40;;;;;;5099561;28;20646;-51
2023/07/08 11:57:58;;;;;;;2.93;1.90;;;32.50;92.30;;;;;;5103737;28;20106;-52
2023/07/08 12:00:25;;;;;;;3.65;2.03;;;;;;;;;;5104217;28;20024;-52
2023/07/08 12:03:03;;;;;;;5.57;2.17;;;32.20;99.90;;;;;;5096267;28;20040;-53
2023/07/08 12:05:38;;;;;;;4.60;2.97;;;32.70;99.80;;;;;;5094675;28;20129;-54
2023/07/08 12:08:12;;;;;;;17.95;9.35;;;;;;;;;;5095615;28;20107;-52
2023/07/08 12:10:39;;;;;;;4.18;2.63;;;;;;;;;;5104847;28;20032;-53
2023/07/08 12:13:17;;;;;;;5.13;2.63;;;32.30;91.10;;;;;;5100414;28;20031;-52
2023/07/08 12:15:43;;;;;;;11.25;6.47;;;31.70;98.80;;;;;;5098474;28;20034;-53
2023/07/08 12:18:18;;;;;;;7.18;2.55;;;31.70;92.30;;;;;;5094670;28;20035;-54
2023/07/08 12:21:00;;;;;;;3.35;2.00;;;32.20;92.00;;;;;;5107239;28;20050;-53
2023/07/08 12:23:27;;;;;;;9.52;5.50;;;32.60;91.10;;;;;;5099071;28;20059;-52
2023/07/08 12:25:54;;;;;;;7.50;4.78;;;33.00;92.10;;;;;;5086610;28;20043;-53
2023/07/08 12:28:23;;;;;;;8.15;2.85;;;33.00;91.30;;;;;;5099521;28;20028;-52
2023/07/08 12:30:49;;;;;;;4.88;3.40;;;33.50;91.70;;;;;;5102372;28;20072;-52
2023/07/08 12:33:30;;;;;;;7.35;3.08;;;32.70;90.60;;;;;;5109255;28;20494;-54
2023/07/08 12:35:56;;;;;;;2.97;2.00;;;32.90;91.50;;;;;;5103334;28;20150;-52
2023/07/08 12:38:28;;;;;;;8.40;2.40;;;;;;;;;;5049474;28;20115;-52
2023/07/08 12:40:54;;;;;;;5.18;2.60;;;;;;;;;;5078023;28;20556;-54
2023/07/08 12:43:20;;;;;;;3.75;1.88;;;33.60;99.90;;;;;;5065364;28;20442;-52
2023/07/08 12:45:46;;;;;;;7.00;3.35;;;33.70;99.90;;;;;;5070585;28;20538;-52
2023/07/08 12:48:12;;;;;;;6.78;3.10;;;33.10;99.90;;;;;;5042471;28;20127;-54
2023/07/08 12:50:37;;;;;;;3.08;2.22;;;32.60;99.90;;;;;;5064756;28;20525;-53
2023/07/08 12:53:09;;;;;;;2.60;1.83;;;32.60;99.90;;;;;;5042901;28;20037;-53
2023/07/08 12:55:39;;;;;;;;;;;32.30;99.90;;;;;;5064021;28;20106;-51
2023/07/08 12:58:05;;;;;;;5.50;3.75;;;32.80;99.90;;;;;;5042222;28;19916;-52
2023/07/08 13:00:36;;;;;;;3.22;2.28;;;33.30;99.90;;;;;;5066791;28;20029;-54
2023/07/08 13:03:07;;;;;;;;;;;33.50;99.90;;;;;;5057945;28;20025;-52
2023/07/08 13:05:33;;;;;;;5.03;2.20;;;33.30;99.90;;;;;;5066505;28;19912;-53
2023/07/08 13:07:59;;;;;;;3.85;2.15;;;33.10;99.90;;;;;;5065148;28;20047;-52
2023/07/08 13:10:29;;;;;;;4.35;2.42;;;32.90;99.90;;;;;;5063036;28;20135;-53
2023/07/08 13:13:00;;;;;;;3.80;2.10;;;33.10;99.90;;;;;;5072999;28;20071;-51